Time;durP1;ratioP1;P1;durP2;ratioP2;P2;SDS_P1;SDS_P2;PMS_P1;PMS_P2;Temp;Humidity;BMP_temperature;BMP_pressure;BME280_temperature;BME280_humidity;BME280_pressure;Samples;Min_cycle;Max_cycle;Signal;HPM_P1;HPM_P2
2023/05/18 00:01:19;;;;;;;3.08;1.23;;;12.20;99.90;;;;;;5072224;28;20384;-53
2023/05/18 00:03:46;;;;;;;1.15;1.05;;;12.20;99.90;;;;;;5072469;28;20036;-52
2023/05/18 00:06:11;;;;;;;1.30;1.20;;;12.20;99.90;;;;;;5072229;28;20032;-53
2023/05/18 00:08:37;;;;;;;0.95;0.88;;;12.30;99.90;;;;;;5070309;28;20044;-51
2023/05/18 00:11:04;;;;;;;1.15;0.95;;;;;;;;;;5072857;28;20028;-53
2023/05/18 00:13:31;;;;;;;3.17;1.42;;;12.20;99.90;;;;;;5071910;28;20033;-53
2023/05/18 00:15:56;;;;;;;1.50;1.40;;;12.00;99.90;;;;;;5071822;28;20484;-52
2023/05/18 00:18:23;;;;;;;1.95;1.55;;;12.00;99.90;;;;;;5072973;28;20054;-52
2023/05/18 00:20:59;;;;;;;1.63;1.15;;;12.00;99.90;;;;;;5064882;28;20475;-52
2023/05/18 00:23:31;;;;;;;1.90;1.23;;;12.10;99.90;;;;;;5072025;28;20430;-52
2023/05/18 00:25:58;;;;;;;2.28;1.35;;;11.80;99.90;;;;;;5072079;28;20040;-53
2023/05/18 00:28:25;;;;;;;1.63;1.25;;;11.80;99.90;;;;;;5070989;28;20021;-52
2023/05/18 00:30:51;;;;;;;1.88;1.33;;;11.70;99.90;;;;;;5053442;28;20037;-51
2023/05/18 00:33:17;;;;;;;1.73;1.30;;;11.80;99.90;;;;;;5071144;28;20059;-53
2023/05/18 00:35:43;;;;;;;2.45;1.35;;;11.80;99.90;;;;;;5071800;28;20060;-53
2023/05/18 00:38:10;;;;;;;1.15;0.80;;;11.80;99.90;;;;;;5071442;28;20032;-53
2023/05/18 00:40:38;;;;;;;1.50;1.30;;;11.80;99.90;;;;;;5068387;28;20045;-51
2023/05/18 00:43:03;;;;;;;2.75;1.30;;;11.80;99.90;;;;;;5071469;28;20036;-52
2023/05/18 00:45:29;;;;;;;1.70;1.48;;;11.80;99.90;;;;;;5071609;28;20030;-54
2023/05/18 00:47:55;;;;;;;1.27;0.93;;;11.80;99.90;;;;;;5071720;28;20426;-52
2023/05/18 00:50:21;;;;;;;1.15;0.85;;;11.70;99.90;;;;;;5071350;28;20058;-55
2023/05/18 00:52:47;;;;;;;1.85;1.23;;;11.60;99.90;;;;;;5052916;28;20040;-55
2023/05/18 00:55:13;;;;;;;2.10;1.63;;;11.60;99.90;;;;;;5072261;28;20028;-51
2023/05/18 00:57:43;;;;;;;1.73;1.02;;;11.60;99.90;;;;;;5071314;28;20043;-54
2023/05/18 01:00:09;;;;;;;0.75;0.75;;;11.60;99.90;;;;;;5069186;28;20057;-51
2023/05/18 01:02:41;;;;;;;0.45;0.45;;;11.50;99.90;;;;;;5085335;28;20047;-52
2023/05/18 01:05:09;;;;;;;1.60;1.40;;;11.50;99.90;;;;;;5083209;28;20035;-52
2023/05/18 01:07:36;;;;;;;2.47;1.38;;;;;;;;;;5077583;28;20446;-53
2023/05/18 01:10:02;;;;;;;1.20;0.88;;;11.40;99.90;;;;;;5081117;28;20446;-54
2023/05/18 01:12:36;;;;;;;2.40;1.65;;;11.40;99.90;;;;;;5089031;28;20032;-52
2023/05/18 01:15:16;;;;;;;1.50;1.00;;;;;;;;;;5083464;28;20027;-51
2023/05/18 01:18:09;;;;;;;2.28;1.55;;;11.50;99.90;;;;;;5079991;28;20135;-52
2023/05/18 01:20:44;;;;;;;2.03;1.60;;;11.30;99.90;;;;;;5083262;28;20111;-53
2023/05/18 01:23:28;;;;;;;5.95;1.60;;;11.40;99.90;;;;;;5077401;28;20513;-52
2023/05/18 01:25:54;;;;;;;4.78;1.60;;;11.30;99.90;;;;;;5086096;28;20042;-52
2023/05/18 01:28:28;;;;;;;4.93;1.58;;;11.30;99.90;;;;;;5082104;28;20032;-52
2023/05/18 01:30:55;;;;;;;2.75;1.25;;;11.30;99.90;;;;;;5084086;28;20484;-52
2023/05/18 01:33:21;;;;;;;2.00;1.52;;;11.40;99.90;;;;;;5040747;28;20041;-54
2023/05/18 01:35:49;;;;;;;2.97;1.48;;;11.40;99.90;;;;;;5070376;28;20035;-54
2023/05/18 01:38:27;;;;;;;1.65;1.10;;;;;;;;;;5071493;28;20082;-52
2023/05/18 01:40:56;;;;;;;2.85;1.50;;;;;;;;;;5068304;28;20037;-53
2023/05/18 01:43:28;;;;;;;0.90;0.80;;;11.20;99.90;;;;;;5070852;28;20021;-55
2023/05/18 01:46:00;;;;;;;1.30;1.20;;;11.20;99.90;;;;;;5068614;28;20134;-52
2023/05/18 01:48:26;;;;;;;2.40;1.40;;;11.20;99.90;;;;;;5053177;28;20044;-52
2023/05/18 01:50:57;;;;;;;1.70;1.05;;;11.20;99.90;;;;;;5069549;28;20044;-52
2023/05/18 01:53:34;;;;;;;3.03;1.42;;;11.20;99.90;;;;;;5070299;28;20058;-55
2023/05/18 01:56:01;;;;;;;5.65;1.65;;;11.30;99.90;;;;;;5069120;28;20032;-51
2023/05/18 01:58:27;;;;;;;0.73;0.73;;;11.20;99.90;;;;;;5071095;28;20075;-51
2023/05/18 02:00:53;;;;;;;2.25;1.92;;;11.20;99.90;;;;;;5071397;28;20063;-52
2023/05/18 02:03:19;;;;;;;1.30;1.13;;;11.20;99.90;;;;;;5070249;28;20035;-52
2023/05/18 02:05:45;;;;;;;2.35;1.42;;;11.20;99.90;;;;;;5070863;28;20135;-52
2023/05/18 02:08:11;;;;;;;0.65;0.65;;;11.20;99.90;;;;;;5067799;28;20158;-53
2023/05/18 02:10:37;;;;;;;1.13;1.00;;;11.10;99.90;;;;;;5035042;28;20098;-52
2023/05/18 02:13:02;;;;;;;1.95;1.40;;;11.10;99.90;;;;;;5069607;28;20035;-52
2023/05/18 02:15:28;;;;;;;2.85;1.80;;;;;;;;;;5070405;28;20028;-52
2023/05/18 02:17:56;;;;;;;2.13;1.40;;;;;;;;;;5066733;28;20182;-53
2023/05/18 02:20:22;;;;;;;3.55;1.58;;;11.20;99.90;;;;;;5070255;28;20047;-52
2023/05/18 02:22:48;;;;;;;2.10;1.77;;;11.30;99.90;;;;;;5068363;28;20028;-52
2023/05/18 02:25:14;;;;;;;2.20;1.63;;;11.20;99.90;;;;;;5064282;28;20127;-52
2023/05/18 02:27:39;;;;;;;3.20;1.58;;;11.30;99.90;;;;;;5067655;28;20042;-53
2023/05/18 02:30:07;;;;;;;1.67;1.23;;;11.40;99.90;;;;;;5070052;28;20036;-55
2023/05/18 02:32:37;;;;;;;3.28;1.45;;;11.30;99.90;;;;;;5076497;28;20484;-53
2023/05/18 02:35:07;;;;;;;3.72;1.58;;;11.30;99.90;;;;;;5083365;28;20041;-55
2023/05/18 02:37:33;;;;;;;3.55;1.05;;;11.30;99.90;;;;;;5066498;28;20110;-54
2023/05/18 02:40:00;;;;;;;2.65;1.60;;;11.30;99.90;;;;;;5070337;28;20480;-53
2023/05/18 02:42:25;;;;;;;2.30;1.52;;;11.30;99.90;;;;;;5070230;28;20472;-53
2023/05/18 02:44:51;;;;;;;1.83;0.95;;;11.30;99.90;;;;;;5070445;28;20024;-52
2023/05/18 02:47:17;;;;;;;3.72;1.58;;;11.20;99.90;;;;;;5069058;28;20025;-52
2023/05/18 02:49:43;;;;;;;1.75;1.40;;;11.30;99.90;;;;;;5070249;28;20606;-53
2023/05/18 02:52:08;;;;;;;2.17;1.60;;;11.40;99.90;;;;;;5070363;28;20031;-52
2023/05/18 02:54:35;;;;;;;3.50;1.92;;;;;;;;;;5069990;28;20747;-54
2023/05/18 02:57:01;;;;;;;2.70;1.80;;;;;;;;;;5064805;28;20036;-52
2023/05/18 02:59:26;;;;;;;3.00;1.73;;;11.20;99.90;;;;;;5073339;28;20080;-52
2023/05/18 03:01:52;;;;;;;2.17;1.45;;;11.50;99.90;;;;;;5074345;28;20467;-53
2023/05/18 03:04:18;;;;;;;3.05;1.65;;;11.40;99.90;;;;;;5072904;28;20036;-53
2023/05/18 03:06:46;;;;;;;3.85;1.73;;;11.50;99.90;;;;;;5073769;28;20098;-54
2023/05/18 03:09:12;;;;;;;2.30;1.60;;;;;;;;;;5073144;28;20095;-52
2023/05/18 03:11:38;;;;;;;2.40;1.30;;;;;;;;;;5037770;28;20434;-51
2023/05/18 03:14:04;;;;;;;2.97;1.55;;;;;;;;;;5072000;28;20068;-52
2023/05/18 03:16:30;;;;;;;3.28;1.80;;;;;;;;;;5070985;28;20064;-54
2023/05/18 03:19:00;;;;;;;1.98;1.33;;;;;;;;;;5073352;28;20097;-53
2023/05/18 03:21:32;;;;;;;3.80;2.47;;;11.30;99.90;;;;;;5072679;28;20035;-52
2023/05/18 03:23:58;;;;;;;2.70;1.65;;;;;;;;;;5072529;28;20032;-53
2023/05/18 03:26:24;;;;;;;3.90;2.47;;;;;;;;;;5072796;28;20047;-52
2023/05/18 03:28:51;;;;;;;2.65;1.77;;;;;;;;;;5072890;28;20071;-52
2023/05/18 03:31:17;;;;;;;2.45;1.60;;;;;;;;;;5083289;28;20037;-53
2023/05/18 03:33:43;;;;;;;3.22;1.67;;;;;;;;;;5073623;28;20460;-54
2023/05/18 03:36:11;;;;;;;6.28;1.85;;;;;;;;;;5070515;28;20404;-53
2023/05/18 03:38:39;;;;;;;2.30;1.50;;;;;;;;;;5072975;28;20024;-54
2023/05/18 03:41:05;;;;;;;2.50;1.80;;;;;;;;;;5073229;28;20123;-53
2023/05/18 03:43:31;;;;;;;0.90;0.88;;;;;;;;;;5058617;28;20054;-54
2023/05/18 03:45:57;;;;;;;3.42;1.75;;;;;;;;;;5078960;28;20098;-54
2023/05/18 03:48:24;;;;;;;3.10;1.83;;;;;;;;;;5069889;28;20033;-53
2023/05/18 03:50:50;;;;;;;3.13;1.85;;;11.40;99.90;;;;;;5072213;28;20024;-54
2023/05/18 03:53:20;;;;;;;2.38;1.55;;;11.30;99.90;;;;;;5072511;28;20036;-52
2023/05/18 03:55:48;;;;;;;3.10;1.45;;;11.40;99.90;;;;;;5072760;28;20372;-52
2023/05/18 03:58:14;;;;;;;3.22;1.85;;;11.30;99.90;;;;;;5072997;28;20236;-54
2023/05/18 04:00:41;;;;;;;2.80;2.03;;;11.30;99.90;;;;;;5071635;28;20075;-51
2023/05/18 04:03:13;;;;;;;2.05;1.52;;;11.30;99.90;;;;;;5072932;28;20585;-51
2023/05/18 04:05:42;;;;;;;2.15;1.38;;;11.10;99.90;;;;;;5067593;28;20111;-52
2023/05/18 04:08:09;;;;;;;2.53;1.40;;;11.30;99.90;;;;;;5054382;28;20036;-52
2023/05/18 04:10:35;;;;;;;6.60;1.85;;;11.30;99.90;;;;;;5072067;28;20040;-53
2023/05/18 04:13:01;;;;;;;2.10;1.00;;;11.30;99.90;;;;;;5073227;28;20044;-52
2023/05/18 04:15:26;;;;;;;3.05;1.38;;;11.30;99.90;;;;;;5081728;28;20040;-53
2023/05/18 04:17:52;;;;;;;2.60;1.25;;;11.20;99.90;;;;;;5072387;28;20395;-53
2023/05/18 04:20:18;;;;;;;2.88;1.38;;;11.30;99.90;;;;;;5071848;28;20441;-52
2023/05/18 04:22:46;;;;;;;3.47;1.83;;;11.40;99.90;;;;;;5071698;28;20549;-52
2023/05/18 04:25:13;;;;;;;1.38;0.93;;;11.30;99.90;;;;;;5071750;28;20044;-54
2023/05/18 04:27:41;;;;;;;2.92;1.70;;;11.30;99.90;;;;;;5065895;28;20089;-53
2023/05/18 04:30:09;;;;;;;2.42;1.48;;;11.30;99.90;;;;;;5053797;28;20534;-52
2023/05/18 04:32:35;;;;;;;2.72;1.80;;;11.30;99.90;;;;;;5051428;28;20066;-52
2023/05/18 04:35:05;;;;;;;2.75;1.40;;;11.30;99.90;;;;;;5059462;28;20940;-54
2023/05/18 04:37:32;;;;;;;1.63;1.40;;;11.30;99.90;;;;;;5051205;28;20093;-51
2023/05/18 04:40:01;;;;;;;3.05;1.75;;;11.40;99.90;;;;;;5084581;28;20040;-52
2023/05/18 04:42:27;;;;;;;1.08;0.88;;;11.40;99.90;;;;;;5080738;28;20036;-53
2023/05/18 04:44:53;;;;;;;2.50;1.52;;;11.30;99.90;;;;;;5078577;28;20040;-52
2023/05/18 04:47:20;;;;;;;1.85;1.25;;;11.40;99.90;;;;;;5080933;28;20032;-53
2023/05/18 04:49:47;;;;;;;1.77;1.23;;;11.50;99.90;;;;;;5083801;28;20105;-53
2023/05/18 04:52:14;;;;;;;1.85;1.40;;;11.50;99.90;;;;;;5084613;28;20127;-53
2023/05/18 04:54:40;;;;;;;1.08;0.82;;;11.50;99.90;;;;;;5085968;28;20774;-52
2023/05/18 04:57:05;;;;;;;2.20;1.52;;;11.40;99.90;;;;;;5080501;28;20540;-52
2023/05/18 04:59:35;;;;;;;1.30;0.82;;;11.50;99.90;;;;;;5079948;28;20064;-54
2023/05/18 05:02:02;;;;;;;1.33;1.15;;;;;;;;;;5073514;28;20059;-54
2023/05/18 05:04:28;;;;;;;1.25;1.10;;;;;;;;;;5070876;28;20038;-53
2023/05/18 05:06:54;;;;;;;1.88;1.45;;;11.60;99.90;;;;;;5070655;28;20171;-53
2023/05/18 05:09:19;;;;;;;2.53;1.40;;;11.60;99.90;;;;;;5104113;28;20490;-54
2023/05/18 05:11:45;;;;;;;1.17;0.80;;;11.60;99.90;;;;;;5066638;28;20028;-53
2023/05/18 05:14:11;;;;;;;1.38;0.90;;;11.60;99.90;;;;;;5067426;28;20032;-51
2023/05/18 05:16:38;;;;;;;1.70;1.08;;;11.70;99.90;;;;;;5071003;28;20028;-53
2023/05/18 05:19:03;;;;;;;2.20;1.20;;;11.70;99.90;;;;;;5070602;28;20032;-53
2023/05/18 05:21:30;;;;;;;2.72;1.30;;;11.70;99.90;;;;;;5052621;28;20122;-53
2023/05/18 05:23:56;;;;;;;1.35;1.08;;;11.80;99.90;;;;;;5052685;28;20384;-53
2023/05/18 05:26:21;;;;;;;1.48;1.00;;;11.70;99.90;;;;;;5063471;28;20051;-53
2023/05/18 05:28:48;;;;;;;2.38;1.42;;;;;;;;;;5064853;28;20372;-56
2023/05/18 05:31:14;;;;;;;1.45;1.05;;;;;;;;;;5071529;28;20052;-54
2023/05/18 05:33:40;;;;;;;3.83;1.40;;;12.20;99.90;;;;;;5068008;28;20024;-55
2023/05/18 05:36:07;;;;;;;2.80;1.20;;;12.10;99.90;;;;;;5070792;28;20034;-52
2023/05/18 05:38:33;;;;;;;1.15;0.93;;;12.10;99.90;;;;;;5070362;28;20051;-52
2023/05/18 05:40:59;;;;;;;2.03;1.15;;;;;;;;;;5068082;28;20039;-52
2023/05/18 05:43:25;;;;;;;2.08;1.30;;;12.20;99.90;;;;;;5069535;28;20456;-52
2023/05/18 05:45:51;;;;;;;2.10;1.52;;;12.10;99.90;;;;;;5071205;28;20052;-52
2023/05/18 05:48:17;;;;;;;5.93;1.30;;;12.00;99.90;;;;;;5071022;28;20036;-52
2023/05/18 05:50:42;;;;;;;1.58;1.27;;;12.10;99.90;;;;;;5068929;28;20044;-52
2023/05/18 05:53:08;;;;;;;1.27;1.17;;;12.10;99.90;;;;;;5070642;28;20029;-52
2023/05/18 05:55:40;;;;;;;1.30;1.00;;;12.10;99.90;;;;;;5071664;28;20067;-54
2023/05/18 05:58:09;;;;;;;1.58;1.25;;;12.10;99.90;;;;;;5070572;28;20033;-52
2023/05/18 06:00:35;;;;;;;3.35;1.50;;;12.10;99.90;;;;;;5049197;28;20060;-52
2023/05/18 06:03:01;;;;;;;1.85;1.23;;;12.10;99.90;;;;;;5070618;28;20032;-52
2023/05/18 06:05:27;;;;;;;2.85;1.30;;;12.00;99.90;;;;;;5058036;28;20063;-52
2023/05/18 06:07:54;;;;;;;1.42;1.05;;;12.00;99.90;;;;;;5070832;28;20476;-52
2023/05/18 06:10:20;;;;;;;2.03;1.48;;;12.00;99.90;;;;;;5068361;28;20040;-52
2023/05/18 06:12:45;;;;;;;1.55;1.20;;;12.20;99.90;;;;;;5041555;28;20037;-54
2023/05/18 06:15:11;;;;;;;1.42;1.05;;;12.20;99.90;;;;;;5070278;28;20035;-52
2023/05/18 06:17:37;;;;;;;3.00;1.70;;;12.10;99.90;;;;;;5068297;28;20364;-52
2023/05/18 06:20:07;;;;;;;2.05;1.52;;;12.10;99.90;;;;;;5080840;28;20071;-52
2023/05/18 06:22:33;;;;;;;2.70;1.70;;;12.20;99.90;;;;;;5046149;28;20098;-53
2023/05/18 06:24:59;;;;;;;1.98;1.55;;;12.30;99.90;;;;;;5069622;28;20511;-52
2023/05/18 06:27:25;;;;;;;1.00;0.88;;;12.30;99.90;;;;;;5070542;28;20116;-52
2023/05/18 06:29:51;;;;;;;3.53;1.75;;;12.10;99.90;;;;;;5085915;28;20044;-52
2023/05/18 06:32:17;;;;;;;1.80;1.40;;;12.30;99.90;;;;;;5073854;28;20044;-52
2023/05/18 06:34:44;;;;;;;1.83;1.20;;;12.40;99.90;;;;;;5073255;28;20036;-52
2023/05/18 06:37:10;;;;;;;2.05;1.20;;;12.40;99.90;;;;;;5070855;28;20032;-52
2023/05/18 06:39:36;;;;;;;1.85;1.55;;;12.30;99.90;;;;;;5070564;28;20025;-52
2023/05/18 06:42:02;;;;;;;1.80;1.13;;;12.40;99.90;;;;;;5072105;28;20024;-53
2023/05/18 06:44:28;;;;;;;2.08;1.48;;;12.40;99.90;;;;;;5073965;28;20103;-52
2023/05/18 06:46:54;;;;;;;1.45;1.35;;;;;;;;;;5074428;28;20036;-54
2023/05/18 06:49:20;;;;;;;2.05;1.35;;;;;;;;;;5073402;28;20036;-51
2023/05/18 06:51:46;;;;;;;2.10;1.75;;;12.70;99.90;;;;;;5037185;28;20039;-51
2023/05/18 06:54:13;;;;;;;1.13;0.95;;;;;;;;;;5070429;28;20402;-51
2023/05/18 06:56:39;;;;;;;1.55;1.23;;;;;;;;;;5072002;28;20063;-52
2023/05/18 06:59:05;;;;;;;1.45;1.25;;;;;;;;;;5072143;28;20095;-51
2023/05/18 07:01:32;;;;;;;1.55;1.02;;;;;;;;;;5074213;28;20036;-51
2023/05/18 07:03:58;;;;;;;2.85;1.55;;;;;;;;;;5070707;28;20058;-54
2023/05/18 07:06:24;;;;;;;1.77;1.40;;;;;;;;;;5074416;28;20131;-52
2023/05/18 07:08:50;;;;;;;2.03;1.20;;;;;;;;;;5073190;28;20039;-51
2023/05/18 07:11:17;;;;;;;5.07;3.95;;;;;;;;;;5073319;28;20070;-52
2023/05/18 07:13:43;;;;;;;1.60;1.40;;;;;;;;;;5073130;28;20085;-52
2023/05/18 07:16:09;;;;;;;1.23;1.10;;;;;;;;;;5073091;28;20037;-52
2023/05/18 07:18:35;;;;;;;2.10;1.40;;;;;;;;;;5074937;28;20433;-52
2023/05/18 07:21:01;;;;;;;2.70;1.75;;;;;;;;;;5074117;28;20033;-52
2023/05/18 07:23:27;;;;;;;3.20;2.10;;;13.00;99.90;;;;;;5073374;28;20021;-52
2023/05/18 07:25:53;;;;;;;3.47;1.90;;;13.00;99.90;;;;;;5071959;28;20036;-52
2023/05/18 07:28:19;;;;;;;3.55;1.60;;;13.20;99.90;;;;;;5073070;28;20025;-52
2023/05/18 07:30:44;;;;;;;2.17;1.50;;;13.00;99.90;;;;;;5072607;28;20045;-52
2023/05/18 07:33:10;;;;;;;3.22;1.30;;;13.10;99.90;;;;;;5073291;28;20052;-53
2023/05/18 07:35:36;;;;;;;1.20;1.02;;;13.10;99.90;;;;;;5073674;28;20150;-52
2023/05/18 07:38:02;;;;;;;4.03;1.52;;;13.10;99.90;;;;;;5070714;28;20396;-52
2023/05/18 07:40:27;;;;;;;24.00;9.27;;;13.00;99.90;;;;;;5074164;28;20029;-52
2023/05/18 07:42:53;;;;;;;4.13;2.03;;;13.00;99.90;;;;;;5072478;28;20031;-52
2023/05/18 07:45:19;;;;;;;3.65;2.55;;;13.00;99.90;;;;;;5054260;28;20040;-52
2023/05/18 07:47:45;;;;;;;1.67;1.42;;;13.10;99.90;;;;;;5073184;28;20372;-52
2023/05/18 07:50:11;;;;;;;6.88;2.00;;;;;;;;;;5072649;28;20045;-52
2023/05/18 07:52:37;;;;;;;3.05;1.55;;;;;;;;;;5074073;28;20081;-52
2023/05/18 07:55:03;;;;;;;5.05;2.70;;;;;;;;;;5069835;28;20047;-52
2023/05/18 07:57:29;;;;;;;2.75;1.40;;;;;;;;;;5072791;28;20029;-52
2023/05/18 07:59:56;;;;;;;5.13;2.85;;;;;;;;;;5071892;28;20045;-51
2023/05/18 08:02:22;;;;;;;1.30;1.15;;;;;;;;;;5072596;28;20115;-53
2023/05/18 08:04:48;;;;;;;3.20;2.40;;;;;;;;;;5072851;28;20025;-52
2023/05/18 08:07:14;;;;;;;1.95;1.45;;;;;;;;;;5072158;28;20031;-53
2023/05/18 08:09:40;;;;;;;1.10;0.98;;;;;;;;;;5071866;28;20072;-53
2023/05/18 08:12:07;;;;;;;1.17;1.08;;;;;;;;;;5072053;28;20172;-52
2023/05/18 08:14:33;;;;;;;0.60;0.60;;;;;;;;;;5069262;28;20548;-51
2023/05/18 08:16:59;;;;;;;2.55;1.75;;;;;;;;;;5065617;28;20051;-51
2023/05/18 08:19:25;;;;;;;1.00;0.90;;;;;;;;;;5072024;28;20028;-51
2023/05/18 08:21:51;;;;;;;1.65;1.13;;;;;;;;;;5070505;28;20037;-51
2023/05/18 08:24:18;;;;;;;1.42;0.95;;;;;;;;;;5067500;28;20029;-51
2023/05/18 08:26:44;;;;;;;12.40;3.88;;;;;;;;;;5068346;28;20024;-52
2023/05/18 08:29:10;;;;;;;2.95;1.70;;;;;;;;;;5069347;28;20040;-50
2023/05/18 08:31:37;;;;;;;1.55;1.10;;;;;;;;;;5071057;28;20021;-50
2023/05/18 08:34:06;;;;;;;1.52;1.02;;;13.50;99.90;;;;;;5071931;28;20030;-51
2023/05/18 08:36:36;;;;;;;1.65;1.50;;;13.40;99.90;;;;;;5070675;28;20111;-50
2023/05/18 08:39:02;;;;;;;1.27;1.10;;;13.50;99.90;;;;;;5070689;28;20040;-52
2023/05/18 08:41:31;;;;;;;1.23;1.00;;;13.60;99.90;;;;;;5071848;28;20063;-50
2023/05/18 08:44:25;;;;;;;1.25;0.80;;;13.50;99.90;;;;;;5071439;28;20020;-50
2023/05/18 08:46:51;;;;;;;1.08;0.85;;;13.60;99.90;;;;;;5072714;28;20051;-50
2023/05/18 08:49:19;;;;;;;1.73;1.30;;;;;;;;;;5070897;28;20127;-50
2023/05/18 08:51:49;;;;;;;2.63;1.40;;;;;;;;;;5068022;28;20056;-50
2023/05/18 08:54:19;;;;;;;2.67;2.00;;;14.00;99.90;;;;;;5068707;28;20496;-50
2023/05/18 08:56:46;;;;;;;2.10;1.35;;;13.90;99.90;;;;;;5049336;28;20046;-51
2023/05/18 08:59:16;;;;;;;2.70;2.22;;;14.10;99.90;;;;;;5070565;28;20050;-54
2023/05/18 09:01:42;;;;;;;2.38;1.30;;;14.10;99.90;;;;;;5066276;28;20472;-51
2023/05/18 09:04:08;;;;;;;1.48;1.30;;;14.10;99.90;;;;;;5069578;28;20582;-52
2023/05/18 09:06:35;;;;;;;1.35;1.20;;;14.10;99.90;;;;;;5068549;28;20032;-54
2023/05/18 09:09:05;;;;;;;1.35;0.90;;;14.00;99.90;;;;;;5071356;28;20068;-51
2023/05/18 09:11:33;;;;;;;0.75;0.75;;;13.90;99.90;;;;;;5065556;28;20040;-52
2023/05/18 09:13:59;;;;;;;1.55;1.13;;;13.90;99.90;;;;;;5070534;28;20032;-57
2023/05/18 09:16:25;;;;;;;1.10;1.00;;;13.70;99.90;;;;;;5069647;28;20070;-51
2023/05/18 09:18:52;;;;;;;1.52;0.98;;;13.60;99.90;;;;;;5070707;28;20082;-51
2023/05/18 09:21:17;;;;;;;1.38;1.25;;;13.70;99.90;;;;;;5070513;28;20033;-51
2023/05/18 09:23:44;;;;;;;1.73;1.23;;;13.80;99.90;;;;;;5069455;28;20035;-51
2023/05/18 09:26:11;;;;;;;2.10;1.23;;;13.80;99.90;;;;;;5070565;28;20032;-51
2023/05/18 09:28:41;;;;;;;1.50;1.10;;;13.80;99.90;;;;;;5070596;28;20434;-52
2023/05/18 09:31:11;;;;;;;1.40;1.20;;;13.70;99.90;;;;;;5070848;28;20037;-52
2023/05/18 09:33:38;;;;;;;1.33;0.82;;;13.60;99.90;;;;;;5052489;28;20040;-51
2023/05/18 09:36:06;;;;;;;0.98;0.90;;;13.60;99.90;;;;;;5070525;28;20082;-51
2023/05/18 09:38:37;;;;;;;1.10;0.90;;;13.60;99.90;;;;;;5070719;28;20028;-51
2023/05/18 09:41:03;;;;;;;1.17;1.08;;;13.70;99.90;;;;;;5068238;28;20044;-51
2023/05/18 09:43:28;;;;;;;0.93;0.70;;;13.70;99.90;;;;;;5070297;28;20431;-51
2023/05/18 09:45:54;;;;;;;1.15;1.05;;;13.70;99.90;;;;;;5049358;28;20045;-51
2023/05/18 09:48:21;;;;;;;0.80;0.73;;;13.80;99.90;;;;;;5062129;28;20511;-50
2023/05/18 09:50:48;;;;;;;1.15;0.90;;;13.80;99.90;;;;;;5062503;28;20511;-51
2023/05/18 09:53:14;;;;;;;0.77;0.73;;;13.70;99.90;;;;;;5069929;28;20028;-51
2023/05/18 09:55:48;;;;;;;1.13;0.90;;;13.60;99.90;;;;;;5035669;28;20077;-51
2023/05/18 09:58:14;;;;;;;1.23;0.90;;;13.80;99.90;;;;;;5070334;28;20028;-50
2023/05/18 10:00:50;;;;;;;1.10;0.73;;;13.90;99.90;;;;;;5067153;28;20048;-51
2023/05/18 10:03:21;;;;;;;1.42;1.10;;;13.80;99.90;;;;;;5069661;28;20036;-50
2023/05/18 10:05:46;;;;;;;0.90;0.90;;;14.10;99.90;;;;;;5072620;28;20115;-51
2023/05/18 10:08:14;;;;;;;2.08;1.20;;;14.10;99.90;;;;;;5074378;28;20166;-51
2023/05/18 10:10:45;;;;;;;1.83;1.02;;;14.10;99.90;;;;;;5074685;28;20051;-51
2023/05/18 10:13:18;;;;;;;1.67;0.90;;;14.10;99.90;;;;;;5074576;28;20626;-51
2023/05/18 10:15:55;;;;;;;1.05;0.93;;;14.30;99.90;;;;;;5074873;28;20044;-51
2023/05/18 10:18:23;;;;;;;2.75;1.20;;;14.50;99.90;;;;;;5068182;28;20029;-51
2023/05/18 10:20:51;;;;;;;1.30;1.05;;;14.80;99.90;;;;;;5074086;28;20036;-51
2023/05/18 10:23:21;;;;;;;1.00;0.90;;;15.10;99.90;;;;;;5072622;28;20029;-52
2023/05/18 10:25:49;;;;;;;0.90;0.80;;;15.10;99.90;;;;;;5075394;28;20029;-51
2023/05/18 10:28:24;;;;;;;1.02;0.93;;;15.30;99.90;;;;;;5073957;28;20043;-51
2023/05/18 10:30:52;;;;;;;1.00;0.90;;;15.30;99.90;;;;;;5073322;28;20040;-51
2023/05/18 10:33:21;;;;;;;0.85;0.75;;;15.30;99.90;;;;;;5074140;28;20086;-53
2023/05/18 10:35:48;;;;;;;1.17;0.98;;;;;;;;;;5067754;28;20094;-50
2023/05/18 10:38:27;;;;;;;1.00;0.90;;;15.80;99.90;;;;;;5072724;28;20047;-50
2023/05/18 10:40:59;;;;;;;0.55;0.55;;;15.80;99.90;;;;;;5072712;28;20123;-52
2023/05/18 10:43:26;;;;;;;1.48;1.20;;;15.50;99.90;;;;;;5073828;28;20395;-52
2023/05/18 10:45:53;;;;;;;1.05;0.95;;;;;;;;;;5073646;28;20029;-53
2023/05/18 10:48:20;;;;;;;0.80;0.80;;;;;;;;;;5074435;28;20486;-53
2023/05/18 10:50:50;;;;;;;1.02;0.90;;;;;;;;;;5073482;28;20044;-53
2023/05/18 10:53:26;;;;;;;3.40;1.10;;;15.80;99.90;;;;;;5071117;28;20025;-53
2023/05/18 10:55:52;;;;;;;1.70;1.02;;;15.80;99.90;;;;;;5072661;28;20024;-54
2023/05/18 10:58:22;;;;;;;2.03;1.20;;;15.70;99.90;;;;;;5073302;28;20054;-54
2023/05/18 11:01:00;;;;;;;1.15;1.05;;;15.60;99.90;;;;;;5074313;28;20132;-53
2023/05/18 11:03:27;;;;;;;1.90;1.58;;;15.50;99.90;;;;;;5073465;28;20032;-53
2023/05/18 11:06:26;;;;;;;3.00;1.50;;;15.30;99.90;;;;;;5073659;28;20032;-53
2023/05/18 11:08:51;;;;;;;1.10;0.85;;;15.00;99.90;;;;;;5011511;28;20561;-53
2023/05/18 11:11:25;;;;;;;0.90;0.90;;;14.70;99.90;;;;;;5011368;28;20109;-52
2023/05/18 11:13:50;;;;;;;1.52;1.00;;;14.90;99.90;;;;;;5011625;28;20501;-53
2023/05/18 11:16:17;;;;;;;2.50;1.63;;;14.70;99.90;;;;;;5012175;28;20044;-53
2023/05/18 11:18:51;;;;;;;0.80;0.70;;;14.80;99.90;;;;;;5010456;28;20065;-52
2023/05/18 11:21:35;;;;;;;0.70;0.70;;;14.80;99.90;;;;;;5011326;28;20034;-56
2023/05/18 11:24:23;;;;;;;1.83;1.20;;;14.80;99.90;;;;;;5012339;28;20061;-52
2023/05/18 11:26:57;;;;;;;1.48;0.90;;;14.90;99.90;;;;;;5011580;28;20034;-52
2023/05/18 11:29:36;;;;;;;1.38;0.75;;;14.90;99.90;;;;;;5010631;28;20062;-53
2023/05/18 11:32:02;;;;;;;1.25;0.90;;;15.00;99.90;;;;;;5011053;28;20569;-54
2023/05/18 11:34:44;;;;;;;1.27;1.05;;;14.90;99.90;;;;;;5011229;28;20172;-53
2023/05/18 11:37:11;;;;;;;2.40;1.60;;;15.00;99.90;;;;;;5011521;28;20056;-54
2023/05/18 11:39:38;;;;;;;1.25;1.08;;;15.10;99.90;;;;;;5010473;28;20037;-52
2023/05/18 11:42:13;;;;;;;1.67;0.77;;;15.30;99.90;;;;;;4996644;28;20129;-54
2023/05/18 11:44:38;;;;;;;0.65;0.60;;;15.30;99.90;;;;;;5046225;28;20113;-55
2023/05/18 11:47:08;;;;;;;1.60;1.50;;;15.20;99.90;;;;;;5073688;28;20444;-53
2023/05/18 11:49:44;;;;;;;0.70;0.70;;;15.30;99.90;;;;;;5072125;28;20041;-53
2023/05/18 11:52:19;;;;;;;1.15;0.90;;;15.40;99.90;;;;;;5070594;28;20025;-54
2023/05/18 11:54:52;;;;;;;3.30;1.70;;;15.50;99.90;;;;;;5072313;28;20511;-53
2023/05/18 11:57:19;;;;;;;5.18;2.40;;;15.40;99.90;;;;;;5066584;28;20047;-53
2023/05/18 11:59:47;;;;;;;2.08;1.33;;;15.30;99.90;;;;;;5053348;28;20152;-53
2023/05/18 12:02:19;;;;;;;1.05;0.95;;;15.10;99.90;;;;;;5073261;28;20051;-52
2023/05/18 12:04:50;;;;;;;1.20;0.90;;;15.10;99.90;;;;;;5072548;28;20119;-53
2023/05/18 12:07:21;;;;;;;1.88;1.35;;;15.20;99.90;;;;;;5070418;28;20047;-52
2023/05/18 12:09:47;;;;;;;2.00;1.33;;;15.20;99.90;;;;;;5072780;28;20052;-53
2023/05/18 12:12:22;;;;;;;1.52;1.27;;;15.40;99.90;;;;;;5071607;28;20028;-53
2023/05/18 12:14:54;;;;;;;0.98;0.90;;;15.40;99.90;;;;;;5048850;28;20047;-53
2023/05/18 12:17:21;;;;;;;1.23;1.00;;;15.30;99.90;;;;;;5072119;28;20120;-54
2023/05/18 12:19:47;;;;;;;4.57;1.65;;;15.30;99.90;;;;;;5071604;28;20040;-53
2023/05/18 12:22:13;;;;;;;1.00;0.90;;;14.90;99.90;;;;;;5072203;28;20395;-53
2023/05/18 12:24:41;;;;;;;1.42;1.10;;;15.10;99.90;;;;;;5071827;28;20081;-52
2023/05/18 12:27:10;;;;;;;1.45;1.30;;;15.00;99.90;;;;;;5072109;28;20025;-55
2023/05/18 12:29:40;;;;;;;1.70;1.02;;;15.00;99.90;;;;;;5070825;28;20576;-53
2023/05/18 12:32:11;;;;;;;1.02;0.90;;;15.10;99.90;;;;;;5069392;28;20510;-53
2023/05/18 12:34:38;;;;;;;1.00;0.90;;;15.10;99.90;;;;;;5031619;28;20060;-54
2023/05/18 12:37:06;;;;;;;1.35;1.08;;;15.20;99.90;;;;;;5072143;28;20031;-53
2023/05/18 12:39:32;;;;;;;0.80;0.75;;;15.30;99.90;;;;;;5071653;28;20042;-53
2023/05/18 12:42:14;;;;;;;0.95;0.70;;;15.30;99.90;;;;;;5067961;28;20042;-56
2023/05/18 12:44:42;;;;;;;1.33;0.90;;;15.00;99.90;;;;;;5084959;28;20032;-53
2023/05/18 12:47:13;;;;;;;1.08;1.00;;;14.80;99.90;;;;;;5070939;28;20440;-53
2023/05/18 12:49:40;;;;;;;1.35;0.80;;;14.70;99.90;;;;;;5059895;28;20577;-52
2023/05/18 12:52:13;;;;;;;1.33;0.95;;;15.00;99.90;;;;;;5071253;28;20074;-53
2023/05/18 12:54:57;;;;;;;1.08;0.90;;;15.10;99.90;;;;;;5067587;28;20028;-59
2023/05/18 12:57:26;;;;;;;1.10;1.00;;;15.00;99.90;;;;;;5070137;28;20387;-49
2023/05/18 12:59:59;;;;;;;1.30;0.90;;;15.00;99.90;;;;;;5071510;28;20111;-49
2023/05/18 13:02:36;;;;;;;4.15;1.92;;;15.00;99.90;;;;;;5068371;28;21165;-51
2023/05/18 13:05:07;;;;;;;1.67;1.02;;;15.10;99.90;;;;;;5066967;28;20036;-55
2023/05/18 13:07:41;;;;;;;1.80;1.17;;;15.20;99.90;;;;;;5069755;28;20047;-56
2023/05/18 13:10:12;;;;;;;6.28;1.98;;;15.00;99.90;;;;;;5079939;28;20072;-51
2023/05/18 13:12:40;;;;;;;1.65;1.20;;;15.10;99.90;;;;;;5064616;28;20040;-52